sensor_id;sensor_type;location;lat;lon;timestamp;temperature;humidity
22698;DHT22;11516;51.612;7.510;2022-07-25T00:00:13;21.80;96.00
22698;DHT22;11516;51.612;7.510;2022-07-25T00:02:39;21.80;96.10
22698;DHT22;11516;51.612;7.510;2022-07-25T00:05:05;21.80;95.90
22698;DHT22;11516;51.612;7.510;2022-07-25T00:07:30;21.80;96.00
22698;DHT22;11516;51.612;7.510;2022-07-25T00:09:56;21.80;96.10
22698;DHT22;11516;51.612;7.510;2022-07-25T00:12:21;21.80;96.00
22698;DHT22;11516;51.612;7.510;2022-07-25T00:14:47;21.80;96.10
22698;DHT22;11516;51.612;7.510;2022-07-25T00:17:13;21.80;96.20
22698;DHT22;11516;51.612;7.510;2022-07-25T00:19:39;21.80;96.20
22698;DHT22;11516;51.612;7.510;2022-07-25T00:22:05;21.70;96.30
22698;DHT22;11516;51.612;7.510;2022-07-25T00:24:31;21.80;96.40
22698;DHT22;11516;51.612;7.510;2022-07-25T00:26:56;21.60;96.30
22698;DHT22;11516;51.612;7.510;2022-07-25T00:29:22;21.60;96.50
22698;DHT22;11516;51.612;7.510;2022-07-25T00:31:47;21.60;96.60
22698;DHT22;11516;51.612;7.510;2022-07-25T00:34:13;21.60;96.70
22698;DHT22;11516;51.612;7.510;2022-07-25T00:36:39;21.50;96.70
22698;DHT22;11516;51.612;7.510;2022-07-25T00:39:04;21.40;96.70
22698;DHT22;11516;51.612;7.510;2022-07-25T00:41:30;21.40;97.00
22698;DHT22;11516;51.612;7.510;2022-07-25T00:43:55;21.40;97.20
22698;DHT22;11516;51.612;7.510;2022-07-25T00:46:21;21.40;97.30
22698;DHT22;11516;51.612;7.510;2022-07-25T00:48:47;21.30;97.30
22698;DHT22;11516;51.612;7.510;2022-07-25T00:51:13;21.30;97.30
22698;DHT22;11516;51.612;7.510;2022-07-25T00:53:39;21.30;97.50
22698;DHT22;11516;51.612;7.510;2022-07-25T00:56:05;21.30;97.70
22698;DHT22;11516;51.612;7.510;2022-07-25T00:58:31;21.20;97.60
22698;DHT22;11516;51.612;7.510;2022-07-25T01:00:57;21.20;97.80
22698;DHT22;11516;51.612;7.510;2022-07-25T01:03:23;21.10;97.90
22698;DHT22;11516;51.612;7.510;2022-07-25T01:05:49;21.10;98.00
22698;DHT22;11516;51.612;7.510;2022-07-25T01:08:19;21.10;98.10
22698;DHT22;11516;51.612;7.510;2022-07-25T01:10:46;21.00;98.30
22698;DHT22;11516;51.612;7.510;2022-07-25T01:13:12;21.00;98.30
22698;DHT22;11516;51.612;7.510;2022-07-25T01:15:38;21.00;98.40
22698;DHT22;11516;51.612;7.510;2022-07-25T01:18:03;20.90;98.40
22698;DHT22;11516;51.612;7.510;2022-07-25T01:20:30;20.90;98.70
22698;DHT22;11516;51.612;7.510;2022-07-25T01:22:56;20.90;98.60
22698;DHT22;11516;51.612;7.510;2022-07-25T01:25:23;20.90;98.70
22698;DHT22;11516;51.612;7.510;2022-07-25T01:27:49;20.90;98.70
22698;DHT22;11516;51.612;7.510;2022-07-25T01:30:16;20.80;98.70
22698;DHT22;11516;51.612;7.510;2022-07-25T01:32:43;20.80;98.70
22698;DHT22;11516;51.612;7.510;2022-07-25T01:35:09;20.80;98.60
22698;DHT22;11516;51.612;7.510;2022-07-25T01:37:35;20.70;98.90
22698;DHT22;11516;51.612;7.510;2022-07-25T01:40:01;20.70;99.00
22698;DHT22;11516;51.612;7.510;2022-07-25T01:42:27;20.70;99.00
22698;DHT22;11516;51.612;7.510;2022-07-25T01:44:53;20.70;99.00
22698;DHT22;11516;51.612;7.510;2022-07-25T01:47:18;20.70;99.10
22698;DHT22;11516;51.612;7.510;2022-07-25T01:49:44;20.70;99.20
22698;DHT22;11516;51.612;7.510;2022-07-25T01:52:10;20.60;99.20
22698;DHT22;11516;51.612;7.510;2022-07-25T01:54:36;20.60;99.20
22698;DHT22;11516;51.612;7.510;2022-07-25T01:57:03;20.60;99.50
22698;DHT22;11516;51.612;7.510;2022-07-25T01:59:29;20.60;99.60
22698;DHT22;11516;51.612;7.510;2022-07-25T02:01:54;20.60;99.70
22698;DHT22;11516;51.612;7.510;2022-07-25T02:04:20;20.60;99.70
22698;DHT22;11516;51.612;7.510;2022-07-25T02:06:46;20.50;99.60
22698;DHT22;11516;51.612;7.510;2022-07-25T02:09:11;20.60;99.60
22698;DHT22;11516;51.612;7.510;2022-07-25T02:11:37;20.50;99.50
22698;DHT22;11516;51.612;7.510;2022-07-25T02:14:02;20.50;99.60
22698;DHT22;11516;51.612;7.510;2022-07-25T02:16:28;20.40;99.60
22698;DHT22;11516;51.612;7.510;2022-07-25T02:18:53;20.50;99.60
22698;DHT22;11516;51.612;7.510;2022-07-25T02:21:19;20.40;99.70
22698;DHT22;11516;51.612;7.510;2022-07-25T02:23:45;20.40;99.80
22698;DHT22;11516;51.612;7.510;2022-07-25T02:26:12;20.40;99.70
22698;DHT22;11516;51.612;7.510;2022-07-25T02:28:37;20.40;99.90
22698;DHT22;11516;51.612;7.510;2022-07-25T02:31:03;20.40;99.90
22698;DHT22;11516;51.612;7.510;2022-07-25T02:33:28;20.40;99.90
22698;DHT22;11516;51.612;7.510;2022-07-25T02:35:54;20.30;99.90
22698;DHT22;11516;51.612;7.510;2022-07-25T02:38:20;20.40;99.90
22698;DHT22;11516;51.612;7.510;2022-07-25T02:40:46;20.30;99.70
22698;DHT22;11516;51.612;7.510;2022-07-25T02:43:12;20.30;99.60
22698;DHT22;11516;51.612;7.510;2022-07-25T02:45:38;20.40;99.60
22698;DHT22;11516;51.612;7.510;2022-07-25T02:48:03;20.30;99.70
22698;DHT22;11516;51.612;7.510;2022-07-25T02:50:29;20.30;99.70
22698;DHT22;11516;51.612;7.510;2022-07-25T02:52:55;20.40;99.60
22698;DHT22;11516;51.612;7.510;2022-07-25T02:55:20;20.30;99.60
22698;DHT22;11516;51.612;7.510;2022-07-25T02:57:46;20.30;99.70
22698;DHT22;11516;51.612;7.510;2022-07-25T03:00:12;20.20;99.70
22698;DHT22;11516;51.612;7.510;2022-07-25T03:02:38;20.20;99.90
22698;DHT22;11516;51.612;7.510;2022-07-25T03:05:06;20.20;99.90
22698;DHT22;11516;51.612;7.510;2022-07-25T03:07:32;20.10;99.90
22698;DHT22;11516;51.612;7.510;2022-07-25T03:09:58;20.10;99.90
22698;DHT22;11516;51.612;7.510;2022-07-25T03:12:23;20.10;99.90
22698;DHT22;11516;51.612;7.510;2022-07-25T03:14:49;20.10;99.90
22698;DHT22;11516;51.612;7.510;2022-07-25T03:17:14;20.10;99.90
22698;DHT22;11516;51.612;7.510;2022-07-25T03:19:40;20.10;99.90
22698;DHT22;11516;51.612;7.510;2022-07-25T03:22:06;20.00;99.90
22698;DHT22;11516;51.612;7.510;2022-07-25T03:24:31;20.00;99.90
22698;DHT22;11516;51.612;7.510;2022-07-25T03:26:57;20.00;99.90
22698;DHT22;11516;51.612;7.510;2022-07-25T03:29:22;20.00;99.90
22698;DHT22;11516;51.612;7.510;2022-07-25T03:31:48;19.90;99.90
22698;DHT22;11516;51.612;7.510;2022-07-25T03:34:13;19.90;99.90
22698;DHT22;11516;51.612;7.510;2022-07-25T03:36:39;19.90;99.90
22698;DHT22;11516;51.612;7.510;2022-07-25T03:39:04;19.90;99.90
22698;DHT22;11516;51.612;7.510;2022-07-25T03:41:30;19.90;99.90
22698;DHT22;11516;51.612;7.510;2022-07-25T03:43:55;19.90;99.90
22698;DHT22;11516;51.612;7.510;2022-07-25T03:46:21;19.90;99.90
22698;DHT22;11516;51.612;7.510;2022-07-25T03:48:47;19.90;99.90
22698;DHT22;11516;51.612;7.510;2022-07-25T03:51:13;19.90;99.90
22698;DHT22;11516;51.612;7.510;2022-07-25T03:53:38;19.90;99.90
22698;DHT22;11516;51.612;7.510;2022-07-25T03:56:22;19.90;99.90
22698;DHT22;11516;51.612;7.510;2022-07-25T03:58:48;19.90;99.90
22698;DHT22;11516;51.612;7.510;2022-07-25T04:01:13;19.90;99.90
22698;DHT22;11516;51.612;7.510;2022-07-25T04:03:39;19.90;99.90
22698;DHT22;11516;51.612;7.510;2022-07-25T04:06:05;19.90;99.90
22698;DHT22;11516;51.612;7.510;2022-07-25T04:08:30;19.90;99.90
22698;DHT22;11516;51.612;7.510;2022-07-25T04:10:56;19.80;99.90
22698;DHT22;11516;51.612;7.510;2022-07-25T04:13:21;19.90;99.90
22698;DHT22;11516;51.612;7.510;2022-07-25T04:15:47;19.90;99.90
22698;DHT22;11516;51.612;7.510;2022-07-25T04:18:13;19.90;99.90
22698;DHT22;11516;51.612;7.510;2022-07-25T04:20:38;19.90;99.90
22698;DHT22;11516;51.612;7.510;2022-07-25T04:23:04;19.90;99.90
22698;DHT22;11516;51.612;7.510;2022-07-25T04:25:29;20.00;99.90
22698;DHT22;11516;51.612;7.510;2022-07-25T04:27:55;20.00;99.90
22698;DHT22;11516;51.612;7.510;2022-07-25T04:30:21;20.10;99.90
22698;DHT22;11516;51.612;7.510;2022-07-25T04:32:46;20.10;99.90
22698;DHT22;11516;51.612;7.510;2022-07-25T04:35:12;20.20;99.90
22698;DHT22;11516;51.612;7.510;2022-07-25T04:37:37;20.20;99.90
22698;DHT22;11516;51.612;7.510;2022-07-25T04:40:04;20.30;99.90
22698;DHT22;11516;51.612;7.510;2022-07-25T04:42:30;20.50;99.90
22698;DHT22;11516;51.612;7.510;2022-07-25T04:44:55;20.60;99.90
22698;DHT22;11516;51.612;7.510;2022-07-25T04:47:21;20.70;99.90
22698;DHT22;11516;51.612;7.510;2022-07-25T04:49:46;20.80;99.90
22698;DHT22;11516;51.612;7.510;2022-07-25T04:52:12;20.90;99.90
22698;DHT22;11516;51.612;7.510;2022-07-25T04:54:37;21.00;99.90
22698;DHT22;11516;51.612;7.510;2022-07-25T04:57:03;21.20;99.90
22698;DHT22;11516;51.612;7.510;2022-07-25T04:59:29;21.30;99.90
22698;DHT22;11516;51.612;7.510;2022-07-25T05:01:55;21.40;99.90
22698;DHT22;11516;51.612;7.510;2022-07-25T05:04:21;21.40;99.30
22698;DHT22;11516;51.612;7.510;2022-07-25T05:06:47;21.60;98.30
22698;DHT22;11516;51.612;7.510;2022-07-25T05:09:12;21.70;98.70
22698;DHT22;11516;51.612;7.510;2022-07-25T05:11:38;21.80;98.80
22698;DHT22;11516;51.612;7.510;2022-07-25T05:14:04;21.80;98.50
22698;DHT22;11516;51.612;7.510;2022-07-25T05:16:29;21.90;98.30
22698;DHT22;11516;51.612;7.510;2022-07-25T05:18:55;22.00;98.10
22698;DHT22;11516;51.612;7.510;2022-07-25T05:21:20;22.10;97.90
22698;DHT22;11516;51.612;7.510;2022-07-25T05:23:46;22.10;97.30
22698;DHT22;11516;51.612;7.510;2022-07-25T05:26:12;22.20;97.00
22698;DHT22;11516;51.612;7.510;2022-07-25T05:28:37;22.30;96.90
22698;DHT22;11516;51.612;7.510;2022-07-25T05:31:03;22.40;96.00
22698;DHT22;11516;51.612;7.510;2022-07-25T05:33:29;22.50;96.00
22698;DHT22;11516;51.612;7.510;2022-07-25T05:35:57;22.60;95.60
22698;DHT22;11516;51.612;7.510;2022-07-25T05:38:22;22.90;95.50
22698;DHT22;11516;51.612;7.510;2022-07-25T05:40:48;23.00;94.70
22698;DHT22;11516;51.612;7.510;2022-07-25T05:43:16;23.20;94.10
22698;DHT22;11516;51.612;7.510;2022-07-25T05:45:42;23.30;94.20
22698;DHT22;11516;51.612;7.510;2022-07-25T05:48:08;23.30;94.10
22698;DHT22;11516;51.612;7.510;2022-07-25T05:50:36;23.30;94.00
22698;DHT22;11516;51.612;7.510;2022-07-25T05:53:04;23.40;94.60
22698;DHT22;11516;51.612;7.510;2022-07-25T05:55:30;23.50;95.20
22698;DHT22;11516;51.612;7.510;2022-07-25T05:57:58;23.70;94.90
22698;DHT22;11516;51.612;7.510;2022-07-25T06:00:26;23.80;94.30
22698;DHT22;11516;51.612;7.510;2022-07-25T06:02:58;23.80;93.90
22698;DHT22;11516;51.612;7.510;2022-07-25T06:05:27;23.80;94.30
22698;DHT22;11516;51.612;7.510;2022-07-25T06:07:53;23.90;93.70
22698;DHT22;11516;51.612;7.510;2022-07-25T06:10:19;24.10;93.30
22698;DHT22;11516;51.612;7.510;2022-07-25T06:12:45;24.10;92.40
22698;DHT22;11516;51.612;7.510;2022-07-25T06:15:11;24.30;92.70
22698;DHT22;11516;51.612;7.510;2022-07-25T06:17:36;24.40;92.60
22698;DHT22;11516;51.612;7.510;2022-07-25T06:20:02;24.60;92.80
22698;DHT22;11516;51.612;7.510;2022-07-25T06:22:29;24.70;92.20
22698;DHT22;11516;51.612;7.510;2022-07-25T06:24:55;24.80;91.70
22698;DHT22;11516;51.612;7.510;2022-07-25T06:27:20;24.90;91.40
22698;DHT22;11516;51.612;7.510;2022-07-25T06:29:46;25.00;91.50
22698;DHT22;11516;51.612;7.510;2022-07-25T06:32:12;25.10;91.00
22698;DHT22;11516;51.612;7.510;2022-07-25T06:34:37;25.00;91.10
22698;DHT22;11516;51.612;7.510;2022-07-25T06:37:05;25.10;91.30
22698;DHT22;11516;51.612;7.510;2022-07-25T06:39:31;25.10;91.30
22698;DHT22;11516;51.612;7.510;2022-07-25T06:41:56;25.20;91.40
22698;DHT22;11516;51.612;7.510;2022-07-25T06:44:24;25.20;91.30
22698;DHT22;11516;51.612;7.510;2022-07-25T06:46:49;25.20;91.40
22698;DHT22;11516;51.612;7.510;2022-07-25T06:49:15;25.30;90.80
22698;DHT22;11516;51.612;7.510;2022-07-25T06:51:41;25.40;91.50
22698;DHT22;11516;51.612;7.510;2022-07-25T06:54:06;25.40;87.70
22698;DHT22;11516;51.612;7.510;2022-07-25T06:56:32;25.50;90.50
22698;DHT22;11516;51.612;7.510;2022-07-25T06:58:58;25.60;84.00
22698;DHT22;11516;51.612;7.510;2022-07-25T07:01:24;25.90;87.00
22698;DHT22;11516;51.612;7.510;2022-07-25T07:03:50;26.00;84.10
22698;DHT22;11516;51.612;7.510;2022-07-25T07:06:15;26.20;82.00
22698;DHT22;11516;51.612;7.510;2022-07-25T07:08:41;26.30;82.50
22698;DHT22;11516;51.612;7.510;2022-07-25T07:11:07;26.50;77.30
22698;DHT22;11516;51.612;7.510;2022-07-25T07:13:33;26.80;76.60
22698;DHT22;11516;51.612;7.510;2022-07-25T07:15:58;27.00;75.00
22698;DHT22;11516;51.612;7.510;2022-07-25T07:18:24;27.10;75.20
22698;DHT22;11516;51.612;7.510;2022-07-25T07:20:50;27.10;74.20
22698;DHT22;11516;51.612;7.510;2022-07-25T07:23:16;27.20;74.70
22698;DHT22;11516;51.612;7.510;2022-07-25T07:25:42;27.30;73.90
22698;DHT22;11516;51.612;7.510;2022-07-25T07:28:10;27.40;75.40
22698;DHT22;11516;51.612;7.510;2022-07-25T07:30:35;27.40;73.90
22698;DHT22;11516;51.612;7.510;2022-07-25T07:33:03;27.60;72.30
22698;DHT22;11516;51.612;7.510;2022-07-25T07:35:29;27.60;71.90
22698;DHT22;11516;51.612;7.510;2022-07-25T07:37:55;27.80;69.60
22698;DHT22;11516;51.612;7.510;2022-07-25T07:40:20;27.90;68.70
22698;DHT22;11516;51.612;7.510;2022-07-25T07:42:48;27.90;68.00
22698;DHT22;11516;51.612;7.510;2022-07-25T07:45:19;28.10;68.80
22698;DHT22;11516;51.612;7.510;2022-07-25T07:47:45;28.00;68.10
22698;DHT22;11516;51.612;7.510;2022-07-25T07:50:14;27.90;66.90
22698;DHT22;11516;51.612;7.510;2022-07-25T07:52:41;28.00;67.20
22698;DHT22;11516;51.612;7.510;2022-07-25T07:55:07;27.90;66.60
22698;DHT22;11516;51.612;7.510;2022-07-25T07:57:51;27.90;66.40
22698;DHT22;11516;51.612;7.510;2022-07-25T08:00:17;27.90;65.50
22698;DHT22;11516;51.612;7.510;2022-07-25T08:02:49;27.90;65.20
22698;DHT22;11516;51.612;7.510;2022-07-25T08:05:29;27.90;65.90
22698;DHT22;11516;51.612;7.510;2022-07-25T08:07:56;27.90;65.80
22698;DHT22;11516;51.612;7.510;2022-07-25T08:10:27;27.80;66.10
22698;DHT22;11516;51.612;7.510;2022-07-25T08:12:53;28.00;65.40
22698;DHT22;11516;51.612;7.510;2022-07-25T08:15:20;28.00;65.50
22698;DHT22;11516;51.612;7.510;2022-07-25T08:17:46;28.10;65.10
22698;DHT22;11516;51.612;7.510;2022-07-25T08:20:12;28.10;65.80
22698;DHT22;11516;51.612;7.510;2022-07-25T08:22:43;28.10;65.90
22698;DHT22;11516;51.612;7.510;2022-07-25T08:25:12;28.20;65.00
22698;DHT22;11516;51.612;7.510;2022-07-25T08:27:38;28.40;65.00
22698;DHT22;11516;51.612;7.510;2022-07-25T08:30:06;28.40;64.30
22698;DHT22;11516;51.612;7.510;2022-07-25T08:32:32;28.40;64.30
22698;DHT22;11516;51.612;7.510;2022-07-25T08:34:57;28.30;64.50
22698;DHT22;11516;51.612;7.510;2022-07-25T08:37:24;28.30;64.40
22698;DHT22;11516;51.612;7.510;2022-07-25T08:39:50;28.40;63.70
22698;DHT22;11516;51.612;7.510;2022-07-25T08:42:18;28.40;64.40
22698;DHT22;11516;51.612;7.510;2022-07-25T08:44:49;28.30;64.80
22698;DHT22;11516;51.612;7.510;2022-07-25T08:47:18;28.40;64.40
22698;DHT22;11516;51.612;7.510;2022-07-25T08:49:44;28.60;63.80
22698;DHT22;11516;51.612;7.510;2022-07-25T08:52:11;28.60;63.60
22698;DHT22;11516;51.612;7.510;2022-07-25T08:54:37;28.50;63.90
22698;DHT22;11516;51.612;7.510;2022-07-25T08:57:03;28.50;63.30
22698;DHT22;11516;51.612;7.510;2022-07-25T08:59:30;28.70;63.60
22698;DHT22;11516;51.612;7.510;2022-07-25T09:01:56;28.60;62.40
22698;DHT22;11516;51.612;7.510;2022-07-25T09:04:23;28.60;62.70
22698;DHT22;11516;51.612;7.510;2022-07-25T09:06:51;28.60;63.50
22698;DHT22;11516;51.612;7.510;2022-07-25T09:09:17;28.90;63.10
22698;DHT22;11516;51.612;7.510;2022-07-25T09:11:43;29.00;62.20
22698;DHT22;11516;51.612;7.510;2022-07-25T09:14:11;29.10;62.40
22698;DHT22;11516;51.612;7.510;2022-07-25T09:16:39;29.20;61.20
22698;DHT22;11516;51.612;7.510;2022-07-25T09:19:09;29.10;61.90
22698;DHT22;11516;51.612;7.510;2022-07-25T09:21:36;29.20;61.60
22698;DHT22;11516;51.612;7.510;2022-07-25T09:24:28;29.10;62.20
22698;DHT22;11516;51.612;7.510;2022-07-25T09:26:56;29.10;61.30
22698;DHT22;11516;51.612;7.510;2022-07-25T09:31:50;28.90;61.50
22698;DHT22;11516;51.612;7.510;2022-07-25T09:34:35;28.80;61.90
22698;DHT22;11516;51.612;7.510;2022-07-25T09:37:11;28.80;62.40
22698;DHT22;11516;51.612;7.510;2022-07-25T09:39:42;28.80;62.40
22698;DHT22;11516;51.612;7.510;2022-07-25T09:42:25;28.90;61.50
22698;DHT22;11516;51.612;7.510;2022-07-25T09:45:03;28.80;62.30
22698;DHT22;11516;51.612;7.510;2022-07-25T09:47:31;28.80;62.00
22698;DHT22;11516;51.612;7.510;2022-07-25T09:49:58;28.70;62.60
22698;DHT22;11516;51.612;7.510;2022-07-25T09:52:24;28.90;62.40
22698;DHT22;11516;51.612;7.510;2022-07-25T09:54:49;28.90;62.30
22698;DHT22;11516;51.612;7.510;2022-07-25T09:57:15;29.00;62.10
22698;DHT22;11516;51.612;7.510;2022-07-25T09:59:41;29.00;62.20
22698;DHT22;11516;51.612;7.510;2022-07-25T10:02:32;28.90;62.30
22698;DHT22;11516;51.612;7.510;2022-07-25T10:05:14;29.00;62.10
22698;DHT22;11516;51.612;7.510;2022-07-25T10:07:45;29.10;62.20
22698;DHT22;11516;51.612;7.510;2022-07-25T10:10:23;29.20;62.70
22698;DHT22;11516;51.612;7.510;2022-07-25T10:15:39;29.70;60.80
22698;DHT22;11516;51.612;7.510;2022-07-25T10:18:05;29.60;61.10
22698;DHT22;11516;51.612;7.510;2022-07-25T10:20:33;29.70;61.60
22698;DHT22;11516;51.612;7.510;2022-07-25T10:22:59;29.70;61.20
22698;DHT22;11516;51.612;7.510;2022-07-25T10:25:25;30.10;61.20
22698;DHT22;11516;51.612;7.510;2022-07-25T10:27:53;30.40;59.30
22698;DHT22;11516;51.612;7.510;2022-07-25T10:30:36;30.40;59.60
22698;DHT22;11516;51.612;7.510;2022-07-25T10:33:14;30.10;59.70
22698;DHT22;11516;51.612;7.510;2022-07-25T10:35:43;30.00;59.60
22698;DHT22;11516;51.612;7.510;2022-07-25T10:38:08;30.00;59.50
22698;DHT22;11516;51.612;7.510;2022-07-25T10:40:38;29.90;59.70
22698;DHT22;11516;51.612;7.510;2022-07-25T10:43:17;29.70;60.00
22698;DHT22;11516;51.612;7.510;2022-07-25T10:45:51;29.50;60.80
22698;DHT22;11516;51.612;7.510;2022-07-25T10:48:29;29.30;61.00
22698;DHT22;11516;51.612;7.510;2022-07-25T10:56:11;28.70;62.90
22698;DHT22;11516;51.612;7.510;2022-07-25T10:58:57;28.60;63.20
22698;DHT22;11516;51.612;7.510;2022-07-25T11:01:26;28.50;63.60
22698;DHT22;11516;51.612;7.510;2022-07-25T11:03:54;28.50;63.70
22698;DHT22;11516;51.612;7.510;2022-07-25T11:08:58;28.50;64.10
22698;DHT22;11516;51.612;7.510;2022-07-25T11:11:38;28.50;64.40
22698;DHT22;11516;51.612;7.510;2022-07-25T11:14:16;28.60;64.30
22698;DHT22;11516;51.612;7.510;2022-07-25T11:16:43;29.00;63.70
22698;DHT22;11516;51.612;7.510;2022-07-25T11:21:46;30.10;60.30
22698;DHT22;11516;51.612;7.510;2022-07-25T11:24:13;30.20;60.40
22698;DHT22;11516;51.612;7.510;2022-07-25T11:26:50;30.70;59.10
22698;DHT22;11516;51.612;7.510;2022-07-25T11:29:23;31.30;58.50
22698;DHT22;11516;51.612;7.510;2022-07-25T11:32:10;31.30;57.70
22698;DHT22;11516;51.612;7.510;2022-07-25T11:34:51;31.80;57.70
22698;DHT22;11516;51.612;7.510;2022-07-25T11:37:18;32.30;56.00
22698;DHT22;11516;51.612;7.510;2022-07-25T11:39:46;32.30;55.30
22698;DHT22;11516;51.612;7.510;2022-07-25T11:42:17;32.30;56.20
22698;DHT22;11516;51.612;7.510;2022-07-25T11:44:48;32.20;56.20
22698;DHT22;11516;51.612;7.510;2022-07-25T11:47:31;32.70;55.90
22698;DHT22;11516;51.612;7.510;2022-07-25T11:49:59;32.80;55.30
22698;DHT22;11516;51.612;7.510;2022-07-25T11:52:28;32.50;55.70
22698;DHT22;11516;51.612;7.510;2022-07-25T11:55:08;32.80;55.20
22698;DHT22;11516;51.612;7.510;2022-07-25T11:57:36;33.00;54.80
22698;DHT22;11516;51.612;7.510;2022-07-25T12:00:07;33.30;53.90
22698;DHT22;11516;51.612;7.510;2022-07-25T12:02:34;32.70;54.70
22698;DHT22;11516;51.612;7.510;2022-07-25T12:05:06;32.20;55.40
22698;DHT22;11516;51.612;7.510;2022-07-25T12:07:53;31.80;56.40
22698;DHT22;11516;51.612;7.510;2022-07-25T12:10:30;31.80;56.20
22698;DHT22;11516;51.612;7.510;2022-07-25T12:12:57;32.30;55.70
22698;DHT22;11516;51.612;7.510;2022-07-25T12:15:28;32.20;55.10
22698;DHT22;11516;51.612;7.510;2022-07-25T12:17:55;31.50;55.50
22698;DHT22;11516;51.612;7.510;2022-07-25T12:20:29;30.90;57.10
22698;DHT22;11516;51.612;7.510;2022-07-25T12:22:57;30.50;57.60
22698;DHT22;11516;51.612;7.510;2022-07-25T12:25:24;30.30;58.10
22698;DHT22;11516;51.612;7.510;2022-07-25T12:27:51;30.10;58.30
22698;DHT22;11516;51.612;7.510;2022-07-25T12:30:17;30.10;57.70
22698;DHT22;11516;51.612;7.510;2022-07-25T12:32:43;30.00;57.80
22698;DHT22;11516;51.612;7.510;2022-07-25T12:35:11;29.80;58.00
22698;DHT22;11516;51.612;7.510;2022-07-25T12:37:37;29.80;58.50
22698;DHT22;11516;51.612;7.510;2022-07-25T12:40:04;29.70;58.30
22698;DHT22;11516;51.612;7.510;2022-07-25T12:42:30;29.40;58.50
22698;DHT22;11516;51.612;7.510;2022-07-25T12:44:56;29.00;59.30
22698;DHT22;11516;51.612;7.510;2022-07-25T12:47:22;29.10;59.20
22698;DHT22;11516;51.612;7.510;2022-07-25T12:49:48;29.30;59.60
22698;DHT22;11516;51.612;7.510;2022-07-25T12:52:14;29.40;59.00
22698;DHT22;11516;51.612;7.510;2022-07-25T12:54:40;29.20;59.20
22698;DHT22;11516;51.612;7.510;2022-07-25T12:57:06;28.90;59.70
22698;DHT22;11516;51.612;7.510;2022-07-25T12:59:32;29.00;59.60
22698;DHT22;11516;51.612;7.510;2022-07-25T13:01:57;29.30;59.90
22698;DHT22;11516;51.612;7.510;2022-07-25T13:04:23;29.40;59.40
22698;DHT22;11516;51.612;7.510;2022-07-25T13:06:51;29.60;58.50
22698;DHT22;11516;51.612;7.510;2022-07-25T13:09:17;29.30;59.00
22698;DHT22;11516;51.612;7.510;2022-07-25T13:11:42;29.50;59.00
22698;DHT22;11516;51.612;7.510;2022-07-25T13:14:08;29.60;59.00
22698;DHT22;11516;51.612;7.510;2022-07-25T13:16:34;29.40;59.00
22698;DHT22;11516;51.612;7.510;2022-07-25T13:19:02;29.10;60.20
22698;DHT22;11516;51.612;7.510;2022-07-25T13:21:28;29.00;60.40
22698;DHT22;11516;51.612;7.510;2022-07-25T13:23:55;29.20;60.10
22698;DHT22;11516;51.612;7.510;2022-07-25T13:26:21;29.70;59.60
22698;DHT22;11516;51.612;7.510;2022-07-25T13:28:47;29.90;59.50
22698;DHT22;11516;51.612;7.510;2022-07-25T13:31:12;29.80;59.10
22698;DHT22;11516;51.612;7.510;2022-07-25T13:33:38;29.90;59.40
22698;DHT22;11516;51.612;7.510;2022-07-25T13:36:04;29.50;59.70
22698;DHT22;11516;51.612;7.510;2022-07-25T13:38:30;29.20;60.80
22698;DHT22;11516;51.612;7.510;2022-07-25T13:40:59;29.60;61.40
22698;DHT22;11516;51.612;7.510;2022-07-25T13:43:26;30.30;59.80
22698;DHT22;11516;51.612;7.510;2022-07-25T13:45:52;30.40;59.60
22698;DHT22;11516;51.612;7.510;2022-07-25T13:48:18;30.20;59.60
22698;DHT22;11516;51.612;7.510;2022-07-25T13:50:43;29.40;61.00
22698;DHT22;11516;51.612;7.510;2022-07-25T13:53:09;29.20;61.90
22698;DHT22;11516;51.612;7.510;2022-07-25T13:55:34;29.00;62.70
22698;DHT22;11516;51.612;7.510;2022-07-25T13:58:00;29.20;62.20
22698;DHT22;11516;51.612;7.510;2022-07-25T14:00:26;29.50;61.10
22698;DHT22;11516;51.612;7.510;2022-07-25T14:02:52;29.20;61.40
22698;DHT22;11516;51.612;7.510;2022-07-25T14:05:17;29.20;61.90
22698;DHT22;11516;51.612;7.510;2022-07-25T14:07:43;29.40;61.70
22698;DHT22;11516;51.612;7.510;2022-07-25T14:10:08;29.70;61.30
22698;DHT22;11516;51.612;7.510;2022-07-25T14:12:35;29.60;61.50
22698;DHT22;11516;51.612;7.510;2022-07-25T14:15:01;29.80;62.20
22698;DHT22;11516;51.612;7.510;2022-07-25T14:17:27;30.30;61.90
22698;DHT22;11516;51.612;7.510;2022-07-25T14:19:52;30.10;61.90
22698;DHT22;11516;51.612;7.510;2022-07-25T14:22:18;30.30;61.10
22698;DHT22;11516;51.612;7.510;2022-07-25T14:24:44;30.50;60.60
22698;DHT22;11516;51.612;7.510;2022-07-25T14:27:09;30.00;60.50
22698;DHT22;11516;51.612;7.510;2022-07-25T14:29:36;29.90;62.20
22698;DHT22;11516;51.612;7.510;2022-07-25T14:32:03;29.50;63.40
22698;DHT22;11516;51.612;7.510;2022-07-25T14:34:29;29.30;64.00
22698;DHT22;11516;51.612;7.510;2022-07-25T14:36:55;29.20;64.20
22698;DHT22;11516;51.612;7.510;2022-07-25T14:39:20;29.50;63.90
22698;DHT22;11516;51.612;7.510;2022-07-25T14:41:46;29.00;63.80
22698;DHT22;11516;51.612;7.510;2022-07-25T14:44:12;29.10;64.10
22698;DHT22;11516;51.612;7.510;2022-07-25T14:46:37;29.10;62.80
22698;DHT22;11516;51.612;7.510;2022-07-25T14:49:03;28.70;63.00
22698;DHT22;11516;51.612;7.510;2022-07-25T14:51:28;28.80;63.90
22698;DHT22;11516;51.612;7.510;2022-07-25T14:53:54;28.60;64.50
22698;DHT22;11516;51.612;7.510;2022-07-25T14:56:20;28.60;64.30
22698;DHT22;11516;51.612;7.510;2022-07-25T14:58:46;28.10;64.70
22698;DHT22;11516;51.612;7.510;2022-07-25T15:01:11;28.10;64.70
22698;DHT22;11516;51.612;7.510;2022-07-25T15:03:37;28.10;63.80
22698;DHT22;11516;51.612;7.510;2022-07-25T15:06:03;28.10;63.40
22698;DHT22;11516;51.612;7.510;2022-07-25T15:08:31;28.10;63.10
22698;DHT22;11516;51.612;7.510;2022-07-25T15:10:56;28.50;62.70
22698;DHT22;11516;51.612;7.510;2022-07-25T15:13:22;28.80;61.90
22698;DHT22;11516;51.612;7.510;2022-07-25T15:15:48;29.20;60.50
22698;DHT22;11516;51.612;7.510;2022-07-25T15:18:13;29.20;59.60
22698;DHT22;11516;51.612;7.510;2022-07-25T15:20:39;29.10;60.10
22698;DHT22;11516;51.612;7.510;2022-07-25T15:23:05;28.80;61.10
22698;DHT22;11516;51.612;7.510;2022-07-25T15:25:30;28.60;61.90
22698;DHT22;11516;51.612;7.510;2022-07-25T15:27:57;28.50;62.10
22698;DHT22;11516;51.612;7.510;2022-07-25T15:30:23;27.90;63.70
22698;DHT22;11516;51.612;7.510;2022-07-25T15:32:49;27.70;65.60
22698;DHT22;11516;51.612;7.510;2022-07-25T15:35:14;27.50;66.70
22698;DHT22;11516;51.612;7.510;2022-07-25T15:37:40;27.30;67.60
22698;DHT22;11516;51.612;7.510;2022-07-25T15:40:06;27.20;68.20
22698;DHT22;11516;51.612;7.510;2022-07-25T15:42:32;27.20;68.40
22698;DHT22;11516;51.612;7.510;2022-07-25T15:44:58;27.10;69.10